sensor_id;sensor_type;location;lat;lon;timestamp;temperature;humidity
758;DHT22;363;48.764;9.172;2022-11-03T00:00:55;9.70;99.90
758;DHT22;363;48.764;9.172;2022-11-03T00:03:21;9.80;99.90
758;DHT22;363;48.764;9.172;2022-11-03T00:05:46;9.60;99.90
758;DHT22;363;48.764;9.172;2022-11-03T00:08:39;9.60;99.90
758;DHT22;363;48.764;9.172;2022-11-03T00:11:10;9.60;99.90
758;DHT22;363;48.764;9.172;2022-11-03T00:13:38;9.80;99.90
758;DHT22;363;48.764;9.172;2022-11-03T00:16:04;9.70;99.90
758;DHT22;363;48.764;9.172;2022-11-03T00:18:30;9.80;99.90
758;DHT22;363;48.764;9.172;2022-11-03T00:21:00;9.50;99.90
758;DHT22;363;48.764;9.172;2022-11-03T00:23:29;9.40;99.90
758;DHT22;363;48.764;9.172;2022-11-03T00:25:55;9.50;99.90
758;DHT22;363;48.764;9.172;2022-11-03T00:28:21;9.60;99.90
758;DHT22;363;48.764;9.172;2022-11-03T00:30:46;9.60;99.90
758;DHT22;363;48.764;9.172;2022-11-03T00:33:12;9.40;99.90
758;DHT22;363;48.764;9.172;2022-11-03T00:35:37;9.40;99.90
758;DHT22;363;48.764;9.172;2022-11-03T00:38:03;9.40;99.90
758;DHT22;363;48.764;9.172;2022-11-03T00:40:28;9.30;99.90
758;DHT22;363;48.764;9.172;2022-11-03T00:42:54;9.40;99.90
758;DHT22;363;48.764;9.172;2022-11-03T00:45:19;9.30;99.90
758;DHT22;363;48.764;9.172;2022-11-03T00:47:45;9.20;99.90
758;DHT22;363;48.764;9.172;2022-11-03T00:50:29;9.30;99.90
758;DHT22;363;48.764;9.172;2022-11-03T00:52:57;9.30;99.90
758;DHT22;363;48.764;9.172;2022-11-03T00:55:22;9.40;99.90
758;DHT22;363;48.764;9.172;2022-11-03T00:57:48;9.40;99.90
758;DHT22;363;48.764;9.172;2022-11-03T01:00:14;9.60;99.90
758;DHT22;363;48.764;9.172;2022-11-03T01:02:39;9.40;99.90
758;DHT22;363;48.764;9.172;2022-11-03T01:05:05;9.40;99.90
758;DHT22;363;48.764;9.172;2022-11-03T01:07:49;9.40;99.90
758;DHT22;363;48.764;9.172;2022-11-03T01:10:15;9.50;99.90
758;DHT22;363;48.764;9.172;2022-11-03T01:12:40;9.50;99.90
758;DHT22;363;48.764;9.172;2022-11-03T01:15:06;9.70;99.90
758;DHT22;363;48.764;9.172;2022-11-03T01:17:32;9.40;99.90
758;DHT22;363;48.764;9.172;2022-11-03T01:19:57;9.50;99.90
758;DHT22;363;48.764;9.172;2022-11-03T01:22:23;9.30;99.90
758;DHT22;363;48.764;9.172;2022-11-03T01:24:49;9.20;99.90
758;DHT22;363;48.764;9.172;2022-11-03T01:27:19;9.10;99.90
758;DHT22;363;48.764;9.172;2022-11-03T01:29:45;8.90;99.90
758;DHT22;363;48.764;9.172;2022-11-03T01:32:11;8.90;99.90
758;DHT22;363;48.764;9.172;2022-11-03T01:34:37;8.80;99.90
758;DHT22;363;48.764;9.172;2022-11-03T01:37:03;9.00;99.90
758;DHT22;363;48.764;9.172;2022-11-03T01:39:29;8.90;99.90
758;DHT22;363;48.764;9.172;2022-11-03T01:41:55;9.10;99.90
758;DHT22;363;48.764;9.172;2022-11-03T01:44:30;8.80;99.90
758;DHT22;363;48.764;9.172;2022-11-03T01:50:11;8.80;99.90
758;DHT22;363;48.764;9.172;2022-11-03T01:52:35;8.70;99.90
758;DHT22;363;48.764;9.172;2022-11-03T01:55:27;8.80;99.90
758;DHT22;363;48.764;9.172;2022-11-03T01:57:59;8.60;99.90
758;DHT22;363;48.764;9.172;2022-11-03T02:00:27;8.80;99.90
758;DHT22;363;48.764;9.172;2022-11-03T02:02:53;8.60;99.90
758;DHT22;363;48.764;9.172;2022-11-03T02:05:20;8.50;99.90
758;DHT22;363;48.764;9.172;2022-11-03T02:08:04;8.10;99.90
758;DHT22;363;48.764;9.172;2022-11-03T02:10:30;8.20;99.90
758;DHT22;363;48.764;9.172;2022-11-03T02:12:56;8.50;99.90
758;DHT22;363;48.764;9.172;2022-11-03T02:15:22;8.40;99.90
758;DHT22;363;48.764;9.172;2022-11-03T02:17:50;8.30;99.90
758;DHT22;363;48.764;9.172;2022-11-03T02:20:23;8.60;99.90
758;DHT22;363;48.764;9.172;2022-11-03T02:23:19;8.40;99.90
758;DHT22;363;48.764;9.172;2022-11-03T02:26:12;8.20;99.90
758;DHT22;363;48.764;9.172;2022-11-03T02:28:39;8.60;99.90
758;DHT22;363;48.764;9.172;2022-11-03T02:31:15;8.30;99.90
758;DHT22;363;48.764;9.172;2022-11-03T02:34:04;8.30;99.90
758;DHT22;363;48.764;9.172;2022-11-03T02:39:34;8.30;99.90
758;DHT22;363;48.764;9.172;2022-11-03T02:42:01;8.20;99.90
758;DHT22;363;48.764;9.172;2022-11-03T02:44:28;8.10;99.90
758;DHT22;363;48.764;9.172;2022-11-03T02:46:59;8.20;99.90
758;DHT22;363;48.764;9.172;2022-11-03T02:49:26;8.10;99.90
758;DHT22;363;48.764;9.172;2022-11-03T02:51:59;8.30;99.90
758;DHT22;363;48.764;9.172;2022-11-03T02:54:29;8.00;99.90
758;DHT22;363;48.764;9.172;2022-11-03T02:57:00;8.00;99.90
758;DHT22;363;48.764;9.172;2022-11-03T02:59:33;8.30;99.90
758;DHT22;363;48.764;9.172;2022-11-03T03:02:09;8.30;99.90
758;DHT22;363;48.764;9.172;2022-11-03T03:04:40;8.20;99.90
758;DHT22;363;48.764;9.172;2022-11-03T03:07:09;8.40;99.90
758;DHT22;363;48.764;9.172;2022-11-03T03:09:42;8.30;99.90
758;DHT22;363;48.764;9.172;2022-11-03T03:12:11;8.40;99.90
758;DHT22;363;48.764;9.172;2022-11-03T03:14:41;8.20;99.90
758;DHT22;363;48.764;9.172;2022-11-03T03:17:23;8.40;99.90
758;DHT22;363;48.764;9.172;2022-11-03T03:25:15;8.40;99.90
758;DHT22;363;48.764;9.172;2022-11-03T03:27:51;8.30;99.90
758;DHT22;363;48.764;9.172;2022-11-03T03:30:18;8.10;99.90
758;DHT22;363;48.764;9.172;2022-11-03T03:32:46;8.00;99.90
758;DHT22;363;48.764;9.172;2022-11-03T03:35:22;8.10;99.90
758;DHT22;363;48.764;9.172;2022-11-03T03:37:52;8.40;99.90
758;DHT22;363;48.764;9.172;2022-11-03T03:40:24;8.30;99.90
758;DHT22;363;48.764;9.172;2022-11-03T03:42:52;8.20;99.90
758;DHT22;363;48.764;9.172;2022-11-03T03:45:19;8.30;99.90
758;DHT22;363;48.764;9.172;2022-11-03T03:47:45;8.30;99.90
758;DHT22;363;48.764;9.172;2022-11-03T03:50:11;8.20;99.90
758;DHT22;363;48.764;9.172;2022-11-03T03:52:37;8.30;99.90
758;DHT22;363;48.764;9.172;2022-11-03T03:55:03;8.20;99.90
758;DHT22;363;48.764;9.172;2022-11-03T03:57:30;8.20;99.90
758;DHT22;363;48.764;9.172;2022-11-03T03:59:56;8.10;99.90
758;DHT22;363;48.764;9.172;2022-11-03T04:02:22;8.40;99.90
758;DHT22;363;48.764;9.172;2022-11-03T04:04:48;8.50;99.90
758;DHT22;363;48.764;9.172;2022-11-03T04:07:13;8.30;99.90
758;DHT22;363;48.764;9.172;2022-11-03T04:09:57;8.20;99.90
758;DHT22;363;48.764;9.172;2022-11-03T04:12:23;8.50;99.90
758;DHT22;363;48.764;9.172;2022-11-03T04:15:13;8.40;99.90
758;DHT22;363;48.764;9.172;2022-11-03T04:17:58;8.50;99.90
758;DHT22;363;48.764;9.172;2022-11-03T04:20:42;8.40;99.90
758;DHT22;363;48.764;9.172;2022-11-03T04:23:26;8.50;99.90
758;DHT22;363;48.764;9.172;2022-11-03T04:25:54;8.30;99.90
758;DHT22;363;48.764;9.172;2022-11-03T04:28:20;8.60;99.90
758;DHT22;363;48.764;9.172;2022-11-03T04:30:46;8.50;99.90
758;DHT22;363;48.764;9.172;2022-11-03T04:33:19;8.20;99.90
758;DHT22;363;48.764;9.172;2022-11-03T04:35:46;8.30;99.90
758;DHT22;363;48.764;9.172;2022-11-03T04:40:44;8.40;99.90
758;DHT22;363;48.764;9.172;2022-11-03T04:43:15;8.30;99.90
758;DHT22;363;48.764;9.172;2022-11-03T04:45:43;8.50;99.90
758;DHT22;363;48.764;9.172;2022-11-03T04:48:18;8.80;99.90
758;DHT22;363;48.764;9.172;2022-11-03T04:50:46;8.50;99.90
758;DHT22;363;48.764;9.172;2022-11-03T04:53:15;8.50;99.90
758;DHT22;363;48.764;9.172;2022-11-03T04:55:42;8.70;99.90
758;DHT22;363;48.764;9.172;2022-11-03T05:00:44;8.40;99.90
758;DHT22;363;48.764;9.172;2022-11-03T05:03:28;8.50;99.90
758;DHT22;363;48.764;9.172;2022-11-03T05:05:55;8.40;99.90
758;DHT22;363;48.764;9.172;2022-11-03T05:08:21;8.50;99.90
758;DHT22;363;48.764;9.172;2022-11-03T05:10:47;8.60;99.90
758;DHT22;363;48.764;9.172;2022-11-03T05:13:27;8.40;99.90
758;DHT22;363;48.764;9.172;2022-11-03T05:16:04;8.30;99.90
758;DHT22;363;48.764;9.172;2022-11-03T05:18:35;8.20;99.90
758;DHT22;363;48.764;9.172;2022-11-03T05:21:12;8.40;99.90
758;DHT22;363;48.764;9.172;2022-11-03T05:23:43;8.40;99.90
758;DHT22;363;48.764;9.172;2022-11-03T05:26:15;8.30;99.90
758;DHT22;363;48.764;9.172;2022-11-03T05:28:47;8.30;99.90
758;DHT22;363;48.764;9.172;2022-11-03T05:33:40;8.10;99.90
758;DHT22;363;48.764;9.172;2022-11-03T05:36:12;8.10;99.90
758;DHT22;363;48.764;9.172;2022-11-03T05:38:38;8.40;99.90
758;DHT22;363;48.764;9.172;2022-11-03T05:41:25;8.20;99.90
758;DHT22;363;48.764;9.172;2022-11-03T05:44:00;8.10;99.90
758;DHT22;363;48.764;9.172;2022-11-03T05:46:29;8.20;99.90
758;DHT22;363;48.764;9.172;2022-11-03T05:48:55;8.20;99.90
758;DHT22;363;48.764;9.172;2022-11-03T05:51:24;8.00;99.90
758;DHT22;363;48.764;9.172;2022-11-03T05:53:54;8.10;99.90
758;DHT22;363;48.764;9.172;2022-11-03T05:56:23;8.10;99.90
758;DHT22;363;48.764;9.172;2022-11-03T05:58:54;8.00;99.90
758;DHT22;363;48.764;9.172;2022-11-03T06:03:55;8.00;99.90
758;DHT22;363;48.764;9.172;2022-11-03T06:08:50;7.60;99.90
758;DHT22;363;48.764;9.172;2022-11-03T06:11:27;7.90;99.90
758;DHT22;363;48.764;9.172;2022-11-03T06:13:56;7.80;99.90
758;DHT22;363;48.764;9.172;2022-11-03T06:18:59;7.90;99.90
758;DHT22;363;48.764;9.172;2022-11-03T06:21:26;7.70;99.90
758;DHT22;363;48.764;9.172;2022-11-03T06:23:53;7.90;99.90
758;DHT22;363;48.764;9.172;2022-11-03T06:26:24;7.60;99.90
758;DHT22;363;48.764;9.172;2022-11-03T06:28:51;7.60;99.90
758;DHT22;363;48.764;9.172;2022-11-03T06:31:23;7.80;99.90
758;DHT22;363;48.764;9.172;2022-11-03T06:33:51;7.80;99.90
758;DHT22;363;48.764;9.172;2022-11-03T06:36:22;7.80;99.90
758;DHT22;363;48.764;9.172;2022-11-03T06:39:07;7.50;99.90
758;DHT22;363;48.764;9.172;2022-11-03T06:41:35;7.70;99.90
758;DHT22;363;48.764;9.172;2022-11-03T06:44:24;7.60;99.90
758;DHT22;363;48.764;9.172;2022-11-03T06:46:53;8.00;99.90
758;DHT22;363;48.764;9.172;2022-11-03T06:49:34;7.90;99.90
758;DHT22;363;48.764;9.172;2022-11-03T06:52:22;7.90;99.90
758;DHT22;363;48.764;9.172;2022-11-03T06:54:52;8.00;99.90
758;DHT22;363;48.764;9.172;2022-11-03T06:57:18;8.00;99.90
758;DHT22;363;48.764;9.172;2022-11-03T06:59:44;8.20;99.90
758;DHT22;363;48.764;9.172;2022-11-03T07:02:41;8.30;99.90
758;DHT22;363;48.764;9.172;2022-11-03T07:05:22;7.90;99.90
758;DHT22;363;48.764;9.172;2022-11-03T07:07:51;7.90;99.90
758;DHT22;363;48.764;9.172;2022-11-03T07:10:17;8.10;99.90
758;DHT22;363;48.764;9.172;2022-11-03T07:12:43;8.10;99.90
758;DHT22;363;48.764;9.172;2022-11-03T07:15:22;8.20;99.90
758;DHT22;363;48.764;9.172;2022-11-03T07:17:48;8.40;99.90
758;DHT22;363;48.764;9.172;2022-11-03T07:20:15;8.50;99.90
758;DHT22;363;48.764;9.172;2022-11-03T07:22:42;8.70;99.90
758;DHT22;363;48.764;9.172;2022-11-03T07:25:14;9.00;99.90
758;DHT22;363;48.764;9.172;2022-11-03T07:27:41;8.80;99.90
758;DHT22;363;48.764;9.172;2022-11-03T07:32:42;9.30;99.90
758;DHT22;363;48.764;9.172;2022-11-03T07:37:43;9.50;99.90
758;DHT22;363;48.764;9.172;2022-11-03T07:40:21;9.40;99.90
758;DHT22;363;48.764;9.172;2022-11-03T07:42:48;9.70;99.90
758;DHT22;363;48.764;9.172;2022-11-03T07:48:24;9.70;99.90
758;DHT22;363;48.764;9.172;2022-11-03T07:51:11;9.90;99.90
758;DHT22;363;48.764;9.172;2022-11-03T07:53:42;9.80;99.90
758;DHT22;363;48.764;9.172;2022-11-03T07:56:31;10.20;99.90
758;DHT22;363;48.764;9.172;2022-11-03T07:59:00;10.00;99.90
758;DHT22;363;48.764;9.172;2022-11-03T08:01:32;10.30;99.90
758;DHT22;363;48.764;9.172;2022-11-03T08:04:02;10.40;99.90
758;DHT22;363;48.764;9.172;2022-11-03T08:06:30;10.50;99.90
758;DHT22;363;48.764;9.172;2022-11-03T08:08:55;10.80;99.90
758;DHT22;363;48.764;9.172;2022-11-03T08:11:21;10.60;99.90
758;DHT22;363;48.764;9.172;2022-11-03T08:13:49;10.90;99.90
758;DHT22;363;48.764;9.172;2022-11-03T08:16:14;11.00;99.90
758;DHT22;363;48.764;9.172;2022-11-03T08:18:41;11.00;99.90
758;DHT22;363;48.764;9.172;2022-11-03T08:21:07;11.30;99.90
758;DHT22;363;48.764;9.172;2022-11-03T08:23:33;11.30;99.90
758;DHT22;363;48.764;9.172;2022-11-03T08:25:58;11.40;99.90
758;DHT22;363;48.764;9.172;2022-11-03T08:28:24;11.40;99.90
758;DHT22;363;48.764;9.172;2022-11-03T08:30:49;11.90;99.90
758;DHT22;363;48.764;9.172;2022-11-03T08:33:15;11.80;99.90
758;DHT22;363;48.764;9.172;2022-11-03T08:35:41;11.70;99.90
758;DHT22;363;48.764;9.172;2022-11-03T08:38:07;11.80;99.90
758;DHT22;363;48.764;9.172;2022-11-03T08:40:32;12.10;99.90
758;DHT22;363;48.764;9.172;2022-11-03T08:42:58;12.30;99.90
758;DHT22;363;48.764;9.172;2022-11-03T08:45:30;12.20;99.90
758;DHT22;363;48.764;9.172;2022-11-03T08:47:55;12.60;99.90
758;DHT22;363;48.764;9.172;2022-11-03T08:50:21;12.50;99.90
758;DHT22;363;48.764;9.172;2022-11-03T08:52:47;12.50;99.90
758;DHT22;363;48.764;9.172;2022-11-03T08:55:13;12.50;99.90
758;DHT22;363;48.764;9.172;2022-11-03T08:57:39;12.80;99.90
758;DHT22;363;48.764;9.172;2022-11-03T09:00:05;12.90;99.90
758;DHT22;363;48.764;9.172;2022-11-03T09:02:32;12.80;99.90
758;DHT22;363;48.764;9.172;2022-11-03T09:04:58;13.00;99.90
758;DHT22;363;48.764;9.172;2022-11-03T09:07:23;13.50;99.90
758;DHT22;363;48.764;9.172;2022-11-03T09:09:49;13.60;99.90
758;DHT22;363;48.764;9.172;2022-11-03T09:12:15;13.70;99.90
758;DHT22;363;48.764;9.172;2022-11-03T09:14:40;13.90;99.90
758;DHT22;363;48.764;9.172;2022-11-03T09:17:06;13.90;99.90
758;DHT22;363;48.764;9.172;2022-11-03T09:19:32;14.10;99.90
758;DHT22;363;48.764;9.172;2022-11-03T09:21:57;14.30;99.90
758;DHT22;363;48.764;9.172;2022-11-03T09:24:25;14.30;99.90
758;DHT22;363;48.764;9.172;2022-11-03T09:26:51;14.50;99.90
758;DHT22;363;48.764;9.172;2022-11-03T09:29:16;14.40;99.90
758;DHT22;363;48.764;9.172;2022-11-03T09:31:42;14.30;99.90
758;DHT22;363;48.764;9.172;2022-11-03T09:34:08;14.40;99.90
758;DHT22;363;48.764;9.172;2022-11-03T09:36:33;14.80;99.90
758;DHT22;363;48.764;9.172;2022-11-03T09:38:59;14.70;99.90
758;DHT22;363;48.764;9.172;2022-11-03T09:41:24;14.80;99.90
758;DHT22;363;48.764;9.172;2022-11-03T09:43:50;14.70;99.90
758;DHT22;363;48.764;9.172;2022-11-03T09:46:16;14.80;99.90
758;DHT22;363;48.764;9.172;2022-11-03T09:48:43;14.90;99.80
758;DHT22;363;48.764;9.172;2022-11-03T09:51:11;15.10;99.90
758;DHT22;363;48.764;9.172;2022-11-03T09:53:38;15.00;99.70
758;DHT22;363;48.764;9.172;2022-11-03T09:56:04;15.00;99.60
758;DHT22;363;48.764;9.172;2022-11-03T09:58:32;15.20;99.20
758;DHT22;363;48.764;9.172;2022-11-03T10:00:59;15.10;98.90
758;DHT22;363;48.764;9.172;2022-11-03T10:03:25;14.90;99.10
758;DHT22;363;48.764;9.172;2022-11-03T10:05:51;15.00;99.30
758;DHT22;363;48.764;9.172;2022-11-03T10:08:19;14.90;99.20
758;DHT22;363;48.764;9.172;2022-11-03T10:10:47;15.10;99.20
758;DHT22;363;48.764;9.172;2022-11-03T10:13:28;14.80;98.90
758;DHT22;363;48.764;9.172;2022-11-03T10:15:55;15.10;99.00
758;DHT22;363;48.764;9.172;2022-11-03T10:18:21;14.90;99.20
758;DHT22;363;48.764;9.172;2022-11-03T10:20:47;14.80;99.50
758;DHT22;363;48.764;9.172;2022-11-03T10:23:12;15.00;99.80
758;DHT22;363;48.764;9.172;2022-11-03T10:25:42;14.80;99.70
758;DHT22;363;48.764;9.172;2022-11-03T10:28:12;14.70;99.70
758;DHT22;363;48.764;9.172;2022-11-03T10:33:31;14.90;99.90
758;DHT22;363;48.764;9.172;2022-11-03T10:36:02;14.80;99.90
758;DHT22;363;48.764;9.172;2022-11-03T10:38:33;14.70;99.90
758;DHT22;363;48.764;9.172;2022-11-03T10:41:14;14.60;99.90
758;DHT22;363;48.764;9.172;2022-11-03T10:43:41;14.80;99.90
758;DHT22;363;48.764;9.172;2022-11-03T10:46:20;15.00;99.90
758;DHT22;363;48.764;9.172;2022-11-03T10:51:31;15.00;99.90
758;DHT22;363;48.764;9.172;2022-11-03T10:53:57;15.10;99.90
758;DHT22;363;48.764;9.172;2022-11-03T10:56:23;14.90;99.90
758;DHT22;363;48.764;9.172;2022-11-03T10:58:49;15.30;99.90
758;DHT22;363;48.764;9.172;2022-11-03T11:01:15;15.10;99.60
758;DHT22;363;48.764;9.172;2022-11-03T11:03:42;15.40;99.70
758;DHT22;363;48.764;9.172;2022-11-03T11:06:18;15.30;99.30
758;DHT22;363;48.764;9.172;2022-11-03T11:08:44;15.60;99.20
758;DHT22;363;48.764;9.172;2022-11-03T11:11:14;15.70;98.70
758;DHT22;363;48.764;9.172;2022-11-03T11:13:40;15.70;98.40
758;DHT22;363;48.764;9.172;2022-11-03T11:19:23;15.70;98.20
758;DHT22;363;48.764;9.172;2022-11-03T11:21:58;15.70;98.20
758;DHT22;363;48.764;9.172;2022-11-03T11:29:57;15.70;98.60
758;DHT22;363;48.764;9.172;2022-11-03T11:35:05;15.80;98.50
758;DHT22;363;48.764;9.172;2022-11-03T11:37:33;15.90;98.50
758;DHT22;363;48.764;9.172;2022-11-03T11:39:59;15.80;98.20
758;DHT22;363;48.764;9.172;2022-11-03T11:42:24;15.90;98.20
758;DHT22;363;48.764;9.172;2022-11-03T11:44:55;16.30;97.90
758;DHT22;363;48.764;9.172;2022-11-03T11:47:33;16.20;97.90
758;DHT22;363;48.764;9.172;2022-11-03T11:52:31;16.20;97.70
758;DHT22;363;48.764;9.172;2022-11-03T11:54:58;16.10;97.60
758;DHT22;363;48.764;9.172;2022-11-03T11:57:24;16.30;97.80
758;DHT22;363;48.764;9.172;2022-11-03T11:59:50;16.30;98.20
758;DHT22;363;48.764;9.172;2022-11-03T12:02:22;16.40;98.30
758;DHT22;363;48.764;9.172;2022-11-03T12:04:53;16.20;97.50
758;DHT22;363;48.764;9.172;2022-11-03T12:07:33;16.30;97.50
758;DHT22;363;48.764;9.172;2022-11-03T12:10:07;16.30;97.40
758;DHT22;363;48.764;9.172;2022-11-03T12:12:33;16.00;97.10
758;DHT22;363;48.764;9.172;2022-11-03T12:14:59;16.10;97.00
758;DHT22;363;48.764;9.172;2022-11-03T12:19:53;16.60;97.50
758;DHT22;363;48.764;9.172;2022-11-03T12:24:58;16.30;97.80
758;DHT22;363;48.764;9.172;2022-11-03T12:29:50;16.50;97.70
758;DHT22;363;48.764;9.172;2022-11-03T12:32:16;16.00;97.50
758;DHT22;363;48.764;9.172;2022-11-03T12:34:42;16.20;98.20
758;DHT22;363;48.764;9.172;2022-11-03T12:37:08;16.30;97.90
758;DHT22;363;48.764;9.172;2022-11-03T12:39:34;16.00;97.80
758;DHT22;363;48.764;9.172;2022-11-03T12:41:59;16.00;98.10
758;DHT22;363;48.764;9.172;2022-11-03T12:44:26;16.00;98.60
758;DHT22;363;48.764;9.172;2022-11-03T12:46:51;15.80;98.70
758;DHT22;363;48.764;9.172;2022-11-03T12:49:17;16.00;98.90
758;DHT22;363;48.764;9.172;2022-11-03T12:51:42;15.90;98.50
758;DHT22;363;48.764;9.172;2022-11-03T12:54:08;16.10;98.70
758;DHT22;363;48.764;9.172;2022-11-03T12:56:33;16.00;98.90
758;DHT22;363;48.764;9.172;2022-11-03T12:58:59;15.90;99.10
758;DHT22;363;48.764;9.172;2022-11-03T13:01:24;15.90;99.70
758;DHT22;363;48.764;9.172;2022-11-03T13:03:51;16.00;99.60
758;DHT22;363;48.764;9.172;2022-11-03T13:06:16;16.40;99.80
758;DHT22;363;48.764;9.172;2022-11-03T13:08:42;16.00;99.50
758;DHT22;363;48.764;9.172;2022-11-03T13:11:08;15.90;99.90
758;DHT22;363;48.764;9.172;2022-11-03T13:13:52;15.90;99.80
758;DHT22;363;48.764;9.172;2022-11-03T13:16:19;16.10;98.90
758;DHT22;363;48.764;9.172;2022-11-03T13:18:44;15.70;99.00
758;DHT22;363;48.764;9.172;2022-11-03T13:21:10;15.90;99.20
758;DHT22;363;48.764;9.172;2022-11-03T13:23:35;15.80;99.20
758;DHT22;363;48.764;9.172;2022-11-03T13:26:01;15.70;99.70
758;DHT22;363;48.764;9.172;2022-11-03T13:28:27;15.90;99.60
758;DHT22;363;48.764;9.172;2022-11-03T13:30:52;15.80;99.40
758;DHT22;363;48.764;9.172;2022-11-03T13:33:18;15.80;99.60
758;DHT22;363;48.764;9.172;2022-11-03T13:35:43;15.90;99.60
758;DHT22;363;48.764;9.172;2022-11-03T13:38:09;15.90;99.40
758;DHT22;363;48.764;9.172;2022-11-03T13:40:35;16.20;99.60
758;DHT22;363;48.764;9.172;2022-11-03T13:43:00;16.00;99.80
758;DHT22;363;48.764;9.172;2022-11-03T13:45:26;16.10;99.90
758;DHT22;363;48.764;9.172;2022-11-03T13:47:52;16.10;99.90
758;DHT22;363;48.764;9.172;2022-11-03T13:50:18;16.20;99.90
758;DHT22;363;48.764;9.172;2022-11-03T13:52:43;16.10;99.90
758;DHT22;363;48.764;9.172;2022-11-03T13:55:10;16.00;99.90
758;DHT22;363;48.764;9.172;2022-11-03T13:57:36;16.30;99.90
758;DHT22;363;48.764;9.172;2022-11-03T14:00:06;16.10;99.90
758;DHT22;363;48.764;9.172;2022-11-03T14:02:32;16.00;99.90
758;DHT22;363;48.764;9.172;2022-11-03T14:04:58;15.90;99.90
758;DHT22;363;48.764;9.172;2022-11-03T14:07:23;16.00;99.90
758;DHT22;363;48.764;9.172;2022-11-03T14:09:49;16.00;99.90
758;DHT22;363;48.764;9.172;2022-11-03T14:12:14;16.20;99.90
758;DHT22;363;48.764;9.172;2022-11-03T14:14:59;15.90;99.90
758;DHT22;363;48.764;9.172;2022-11-03T14:17:25;15.80;99.90
758;DHT22;363;48.764;9.172;2022-11-03T14:19:51;15.70;99.90
758;DHT22;363;48.764;9.172;2022-11-03T14:22:21;15.90;99.90
758;DHT22;363;48.764;9.172;2022-11-03T14:24:48;15.70;99.90
758;DHT22;363;48.764;9.172;2022-11-03T14:27:14;15.90;99.90
758;DHT22;363;48.764;9.172;2022-11-03T14:29:43;15.60;99.90
758;DHT22;363;48.764;9.172;2022-11-03T14:32:10;15.50;99.90
758;DHT22;363;48.764;9.172;2022-11-03T14:34:36;15.60;99.90
758;DHT22;363;48.764;9.172;2022-11-03T14:37:03;15.60;99.90
758;DHT22;363;48.764;9.172;2022-11-03T14:39:29;15.70;99.90
758;DHT22;363;48.764;9.172;2022-11-03T14:41:54;15.50;99.90
758;DHT22;363;48.764;9.172;2022-11-03T14:44:31;15.80;99.90
758;DHT22;363;48.764;9.172;2022-11-03T14:46:57;15.50;99.90
758;DHT22;363;48.764;9.172;2022-11-03T14:49:22;15.40;99.90
758;DHT22;363;48.764;9.172;2022-11-03T14:51:48;15.30;99.90
758;DHT22;363;48.764;9.172;2022-11-03T14:54:14;15.00;99.90
758;DHT22;363;48.764;9.172;2022-11-03T14:56:39;15.10;99.90
758;DHT22;363;48.764;9.172;2022-11-03T14:59:05;15.10;99.90
758;DHT22;363;48.764;9.172;2022-11-03T15:01:30;14.90;99.90
758;DHT22;363;48.764;9.172;2022-11-03T15:03:56;15.00;99.90
758;DHT22;363;48.764;9.172;2022-11-03T15:06:22;14.90;99.90
758;DHT22;363;48.764;9.172;2022-11-03T15:08:47;15.00;99.90
758;DHT22;363;48.764;9.172;2022-11-03T15:11:13;15.00;99.90
758;DHT22;363;48.764;9.172;2022-11-03T15:13:38;15.00;99.90
758;DHT22;363;48.764;9.172;2022-11-03T15:16:04;15.00;99.90
758;DHT22;363;48.764;9.172;2022-11-03T15:18:30;15.20;99.90
758;DHT22;363;48.764;9.172;2022-11-03T15:20:56;15.30;99.90
758;DHT22;363;48.764;9.172;2022-11-03T15:23:22;15.10;99.90
758;DHT22;363;48.764;9.172;2022-11-03T15:25:47;15.00;99.90
758;DHT22;363;48.764;9.172;2022-11-03T15:28:13;14.90;99.90
758;DHT22;363;48.764;9.172;2022-11-03T15:30:38;14.90;99.90
758;DHT22;363;48.764;9.172;2022-11-03T15:33:04;14.90;99.90
758;DHT22;363;48.764;9.172;2022-11-03T15:35:30;14.80;99.90
758;DHT22;363;48.764;9.172;2022-11-03T15:37:55;14.80;99.90
758;DHT22;363;48.764;9.172;2022-11-03T15:40:24;14.70;99.90
758;DHT22;363;48.764;9.172;2022-11-03T15:42:50;14.80;99.90
758;DHT22;363;48.764;9.172;2022-11-03T15:45:16;14.50;99.90
758;DHT22;363;48.764;9.172;2022-11-03T15:47:41;14.80;99.90
758;DHT22;363;48.764;9.172;2022-11-03T15:50:08;14.40;99.90
758;DHT22;363;48.764;9.172;2022-11-03T15:52:34;14.70;99.90
758;DHT22;363;48.764;9.172;2022-11-03T15:55:00;14.80;99.90
758;DHT22;363;48.764;9.172;2022-11-03T15:57:26;14.60;99.90
758;DHT22;363;48.764;9.172;2022-11-03T15:59:52;14.70;99.90
758;DHT22;363;48.764;9.172;2022-11-03T16:02:17;14.70;99.90
758;DHT22;363;48.764;9.172;2022-11-03T16:04:43;14.80;99.90
758;DHT22;363;48.764;9.172;2022-11-03T16:07:08;14.80;99.90
758;DHT22;363;48.764;9.172;2022-11-03T16:09:34;14.80;99.90
758;DHT22;363;48.764;9.172;2022-11-03T16:12:00;14.80;99.90
758;DHT22;363;48.764;9.172;2022-11-03T16:14:25;14.50;99.90
758;DHT22;363;48.764;9.172;2022-11-03T16:16:51;14.50;99.90
758;DHT22;363;48.764;9.172;2022-11-03T16:19:17;14.40;99.90
758;DHT22;363;48.764;9.172;2022-11-03T16:21:42;14.50;99.90
758;DHT22;363;48.764;9.172;2022-11-03T16:24:08;14.40;99.90
758;DHT22;363;48.764;9.172;2022-11-03T16:26:33;14.60;99.90
758;DHT22;363;48.764;9.172;2022-11-03T16:28:59;14.50;99.90
758;DHT22;363;48.764;9.172;2022-11-03T16:31:25;14.60;99.90
758;DHT22;363;48.764;9.172;2022-11-03T16:33:51;14.50;99.90
758;DHT22;363;48.764;9.172;2022-11-03T16:36:17;14.50;99.90
758;DHT22;363;48.764;9.172;2022-11-03T16:38:43;14.60;99.90
758;DHT22;363;48.764;9.172;2022-11-03T16:41:09;14.60;99.90
758;DHT22;363;48.764;9.172;2022-11-03T16:43:35;14.70;99.90
758;DHT22;363;48.764;9.172;2022-11-03T16:46:00;14.60;99.90
758;DHT22;363;48.764;9.172;2022-11-03T16:48:26;14.50;99.90
758;DHT22;363;48.764;9.172;2022-11-03T16:50:51;14.40;99.90
758;DHT22;363;48.764;9.172;2022-11-03T16:53:18;14.60;99.90
758;DHT22;363;48.764;9.172;2022-11-03T16:55:44;14.40;99.90
758;DHT22;363;48.764;9.172;2022-11-03T16:58:10;14.40;99.90
758;DHT22;363;48.764;9.172;2022-11-03T17:00:36;14.60;99.90
758;DHT22;363;48.764;9.172;2022-11-03T17:03:02;14.50;99.90
758;DHT22;363;48.764;9.172;2022-11-03T17:05:27;14.30;99.90
758;DHT22;363;48.764;9.172;2022-11-03T17:07:53;14.30;99.90
758;DHT22;363;48.764;9.172;2022-11-03T17:10:19;14.40;99.90
758;DHT22;363;48.764;9.172;2022-11-03T17:12:44;14.40;99.90
758;DHT22;363;48.764;9.172;2022-11-03T17:15:10;14.50;99.90
758;DHT22;363;48.764;9.172;2022-11-03T17:17:36;14.70;99.90
758;DHT22;363;48.764;9.172;2022-11-03T17:20:03;14.40;99.90
758;DHT22;363;48.764;9.172;2022-11-03T17:22:28;14.40;99.90
758;DHT22;363;48.764;9.172;2022-11-03T17:24:54;14.40;99.90
758;DHT22;363;48.764;9.172;2022-11-03T17:27:30;14.40;99.90
758;DHT22;363;48.764;9.172;2022-11-03T17:29:59;14.20;99.90
758;DHT22;363;48.764;9.172;2022-11-03T17:32:39;14.30;99.90
758;DHT22;363;48.764;9.172;2022-11-03T17:37:50;14.40;99.90
758;DHT22;363;48.764;9.172;2022-11-03T17:40:20;14.20;99.90
758;DHT22;363;48.764;9.172;2022-11-03T17:42:47;14.30;99.90
758;DHT22;363;48.764;9.172;2022-11-03T17:45:14;14.40;99.90
758;DHT22;363;48.764;9.172;2022-11-03T17:47:41;14.30;99.90
758;DHT22;363;48.764;9.172;2022-11-03T17:50:09;14.40;99.90
758;DHT22;363;48.764;9.172;2022-11-03T17:52:37;14.40;99.90
758;DHT22;363;48.764;9.172;2022-11-03T17:55:05;14.40;99.90